Aviation Digital Data Service (ADDS)

Output produced by METARs form (1209 UTC 24 March 2017)
found at http://www.aviationweather.gov/adds/metars/
 
TAF HLTD 232300Z 2400/2424 12010KT 8000 NSC 
     BECMG 2410/2412 18015G25KT 3000 BLSA 
     BECMG 2415/2417 24012KT 5000 DU
       
TAF HLGT 232300Z 2400/2424 16006KT 8000 NSC 
     BECMG 2410/2412 22010KT 5000 BLDU
       
TAF HLKF 232300Z 2400/2424 VRB02KT CAVOK 
     BECMG 2410/2412 03010KT